Terminal Aerodrome Forecast
Issued by NWS Sioux Falls, SD

Home | Current Version | Previous Version | Text Only | Print | Product List | Glossary On
Versions: 1 2 3 4 5 6 7 8 9 10 11 12 13 14 15
000
FTUS43 KFSD 301606 AAA
TAFHON
TAF AMD
KHON 301606Z 3016/0112 13015G25KT P6SM BKN009 OVC015
     FM301930 13017G26KT P6SM SCT035 BKN120
      TEMPO 3021/3023 5SM TSRA BKN030CB
     FM010100 18009KT P6SM BKN120=

USA.gov is the U.S. government's official web portal to all federal, state and local government web resources and services.